createdAt,value
2023-02-14T00:01:09.758Z,35.47
2023-02-14T00:03:36.612Z,43.25
2023-02-14T00:06:07.398Z,42.63
2023-02-14T00:08:34.144Z,52.40
2023-02-14T00:11:01.036Z,28.70
2023-02-14T00:13:27.899Z,45.35
2023-02-14T00:15:55.527Z,43.83
2023-02-14T00:18:22.283Z,57.55
2023-02-14T00:20:48.961Z,63.13
2023-02-14T00:23:15.620Z,40.60
2023-02-14T00:25:42.301Z,36.28
2023-02-14T00:28:09.143Z,33.72
2023-02-14T00:30:35.993Z,43.85
2023-02-14T00:33:04.853Z,51.45
2023-02-14T00:35:31.600Z,30.42
2023-02-14T00:37:58.259Z,40.42
2023-02-14T00:40:24.961Z,39.58
2023-02-14T00:42:51.643Z,32.10
2023-02-14T00:45:19.082Z,33.38
2023-02-14T00:47:45.742Z,35.20
2023-02-14T00:50:12.404Z,32.65
2023-02-14T00:52:39.055Z,34.00
2023-02-14T00:55:06.076Z,34.63
2023-02-14T00:57:32.751Z,34.72
2023-02-14T00:59:59.463Z,34.65
2023-02-14T01:02:27.016Z,35.92
2023-02-14T01:04:53.758Z,41.92
2023-02-14T01:07:22.640Z,39.90
2023-02-14T01:09:49.333Z,32.88
2023-02-14T01:12:16.184Z,27.20
2023-02-14T01:14:42.881Z,39.28
2023-02-14T01:17:09.895Z,35.05
2023-02-14T01:19:36.699Z,35.30
2023-02-14T01:22:03.619Z,32.85
2023-02-14T01:24:30.326Z,40.45
2023-02-14T01:27:00.416Z,35.58
2023-02-14T01:29:27.118Z,29.42
2023-02-14T01:31:53.829Z,22.88
2023-02-14T01:34:20.657Z,31.45
2023-02-14T01:36:47.340Z,31.50
2023-02-14T01:39:15.089Z,35.50
2023-02-14T01:41:50.185Z,28.83
2023-02-14T01:44:16.891Z,35.20
2023-02-14T01:46:45.757Z,24.63
2023-02-14T01:49:18.465Z,27.15
2023-02-14T01:51:51.502Z,26.90
2023-02-14T01:54:22.127Z,23.88
2023-02-14T01:56:54.037Z,24.08
2023-02-14T01:59:26.846Z,30.33
2023-02-14T02:01:54.134Z,28.30
2023-02-14T02:06:58.159Z,23.35
2023-02-14T02:09:35.491Z,23.92
2023-02-14T02:12:03.594Z,27.00
2023-02-14T02:14:30.316Z,23.15
2023-02-14T02:17:08.672Z,25.95
2023-02-14T02:19:54.725Z,20.23
2023-02-14T02:22:58.493Z,18.00
2023-02-14T02:25:37.030Z,17.55
2023-02-14T02:28:15.660Z,25.60
2023-02-14T02:31:16.439Z,22.60
2023-02-14T02:34:04.234Z,17.65
2023-02-14T02:36:39.883Z,12.80
2023-02-14T02:39:24.646Z,14.68
2023-02-14T02:42:17.094Z,13.90
2023-02-14T02:44:50.710Z,20.48
2023-02-14T02:47:30.458Z,17.60
2023-02-14T02:50:34.951Z,21.95
2023-02-14T02:53:06.155Z,15.02
2023-02-14T02:56:01.749Z,11.00
2023-02-14T02:58:38.970Z,9.20
2023-02-14T03:01:11.479Z,10.05
2023-02-14T03:03:59.851Z,19.27
2023-02-14T03:06:26.542Z,15.85
2023-02-14T03:08:53.216Z,23.13
2023-02-14T03:11:20.125Z,20.30
2023-02-14T03:14:09.616Z,20.80
2023-02-14T03:16:50.306Z,13.77
2023-02-14T03:19:25.854Z,17.48
2023-02-14T03:22:03.492Z,17.50
2023-02-14T03:25:10.823Z,23.00
2023-02-14T03:27:44.658Z,18.23
2023-02-14T03:30:17.708Z,17.92
2023-02-14T03:32:53.926Z,14.23
2023-02-14T03:35:34.199Z,18.35
2023-02-14T03:38:12.883Z,16.08
2023-02-14T03:40:54.660Z,17.67
2023-02-14T03:43:29.869Z,14.75
2023-02-14T03:46:15.339Z,17.08
2023-02-14T03:48:44.238Z,19.42
2023-02-14T03:51:13.896Z,25.08
2023-02-14T03:53:44.550Z,19.55
2023-02-14T03:56:14.574Z,22.20
2023-02-14T03:58:47.076Z,16.77
2023-02-14T04:01:28.254Z,9.63
2023-02-14T04:03:57.572Z,11.45
2023-02-14T04:06:24.312Z,15.38
2023-02-14T04:08:51.108Z,13.75
2023-02-14T04:11:17.822Z,9.63
2023-02-14T04:13:44.520Z,7.30
2023-02-14T04:16:11.258Z,6.57
2023-02-14T04:18:56.758Z,7.80
2023-02-14T04:21:23.552Z,10.50
2023-02-14T04:23:50.221Z,12.95
2023-02-14T04:26:16.888Z,11.65
2023-02-14T04:28:43.568Z,12.80
2023-02-14T04:31:11.420Z,12.77
2023-02-14T04:33:39.300Z,17.38
2023-02-14T04:36:06.350Z,20.85
2023-02-14T04:38:33.281Z,23.75
2023-02-14T04:41:00.312Z,21.45
2023-02-14T04:45:53.894Z,22.70
2023-02-14T04:48:20.545Z,25.80
2023-02-14T04:50:52.555Z,21.70
2023-02-14T04:53:19.692Z,25.35
2023-02-14T04:55:48.718Z,24.48
2023-02-14T04:58:15.725Z,26.52
2023-02-14T05:00:42.405Z,20.70
2023-02-14T05:03:09.079Z,15.15
2023-02-14T05:05:35.750Z,26.27
2023-02-14T05:08:02.475Z,19.13
2023-02-14T05:10:29.210Z,19.25
2023-02-14T05:12:55.860Z,27.08
2023-02-14T05:15:22.511Z,24.65
2023-02-14T05:17:49.178Z,19.00
2023-02-14T05:20:15.897Z,17.75
2023-02-14T05:22:42.540Z,16.45
2023-02-14T05:25:09.281Z,14.70
2023-02-14T05:27:35.941Z,19.90
2023-02-14T05:30:02.740Z,12.68
2023-02-14T05:32:29.444Z,15.00
2023-02-14T05:34:56.106Z,11.43
2023-02-14T05:37:22.770Z,32.88
2023-02-14T05:39:49.474Z,16.85
2023-02-14T05:42:16.187Z,15.82
2023-02-14T05:44:43.143Z,152.93
2023-02-14T05:47:12.123Z,207.52
2023-02-14T05:49:39.665Z,259.27
2023-02-14T05:52:06.515Z,71.95
2023-02-14T05:54:33.203Z,23.65
2023-02-14T05:56:59.922Z,19.27
2023-02-14T05:59:26.666Z,26.48
2023-02-14T06:01:53.405Z,36.17
2023-02-14T06:04:20.131Z,33.13
2023-02-14T06:06:46.811Z,34.58
2023-02-14T06:09:13.780Z,22.40
2023-02-14T06:11:40.603Z,21.02
2023-02-14T06:14:07.286Z,19.25
2023-02-14T06:16:34.137Z,16.75
2023-02-14T06:19:01.035Z,17.23
2023-02-14T06:21:27.729Z,24.23
2023-02-14T06:23:54.485Z,21.92
2023-02-14T06:26:21.187Z,25.20
2023-02-14T06:28:47.860Z,16.95
2023-02-14T06:31:18.045Z,22.25
2023-02-14T06:33:44.856Z,27.65
2023-02-14T06:36:11.593Z,15.25
2023-02-14T06:38:38.311Z,17.80
2023-02-14T06:41:06.753Z,19.13
2023-02-14T06:43:33.950Z,16.52
2023-02-14T06:46:01.101Z,15.00
2023-02-14T06:48:28.246Z,18.67
2023-02-14T06:50:55.244Z,25.30
2023-02-14T06:53:22.084Z,17.88
2023-02-14T06:55:49.048Z,17.05
2023-02-14T06:58:15.700Z,17.52
2023-02-14T07:00:42.532Z,13.55
2023-02-14T07:03:09.478Z,20.98
2023-02-14T07:05:37.098Z,22.90
2023-02-14T07:08:03.932Z,25.83
2023-02-14T07:10:30.660Z,25.65
2023-02-14T07:12:57.389Z,19.50
2023-02-14T07:15:24.074Z,15.30
2023-02-14T07:17:50.838Z,21.55
2023-02-14T07:20:18.268Z,23.63
2023-02-14T07:22:45.253Z,21.90
2023-02-14T07:25:12.532Z,21.77
2023-02-14T07:30:07.691Z,28.40
2023-02-14T07:32:34.659Z,23.52
2023-02-14T07:35:01.348Z,30.25
2023-02-14T07:37:28.031Z,22.08
2023-02-14T07:39:54.778Z,22.20
2023-02-14T07:42:21.456Z,26.73
2023-02-14T07:44:48.437Z,17.00
2023-02-14T07:47:15.103Z,21.45
2023-02-14T07:49:41.773Z,22.85
2023-02-14T07:52:08.875Z,16.65
2023-02-14T07:54:35.902Z,15.90
2023-02-14T07:57:02.543Z,16.92
2023-02-14T07:59:29.198Z,16.80
2023-02-14T08:01:56.378Z,16.67
2023-02-14T08:04:26.060Z,15.90
2023-02-14T08:06:54.122Z,15.32
2023-02-14T08:09:24.754Z,17.65
2023-02-14T08:12:14.682Z,21.77
2023-02-14T08:14:42.582Z,15.93
2023-02-14T08:17:13.397Z,18.40
2023-02-14T08:19:40.651Z,16.60
2023-02-14T08:22:07.989Z,22.98
2023-02-14T08:27:01.222Z,13.48
2023-02-14T08:29:27.900Z,7.82
2023-02-14T08:31:54.659Z,11.02
2023-02-14T08:34:21.359Z,11.68
2023-02-14T08:36:48.031Z,12.68
2023-02-14T08:39:14.688Z,7.70
2023-02-14T08:41:41.348Z,11.88
2023-02-14T08:44:08.042Z,10.70
2023-02-14T08:46:34.787Z,7.80
2023-02-14T08:49:01.726Z,13.93
2023-02-14T08:51:28.794Z,11.75
2023-02-14T08:53:55.904Z,13.20
2023-02-14T08:56:22.737Z,10.55
2023-02-14T08:58:53.060Z,11.65
2023-02-14T09:01:20.256Z,12.25
2023-02-14T09:03:47.210Z,12.93
2023-02-14T09:06:17.213Z,11.98
2023-02-14T09:08:45.326Z,11.73
2023-02-14T09:11:22.201Z,15.02
2023-02-14T09:13:50.872Z,17.15
2023-02-14T09:16:19.871Z,11.95
2023-02-14T09:18:47.915Z,11.68
2023-02-14T09:21:20.556Z,11.57
2023-02-14T09:23:47.424Z,12.23
2023-02-14T09:26:15.424Z,10.77
2023-02-14T09:28:42.559Z,9.85
2023-02-14T09:31:23.330Z,11.43
2023-02-14T09:33:50.974Z,9.60
2023-02-14T09:36:17.919Z,12.43
2023-02-14T09:38:44.586Z,10.10
2023-02-14T09:41:56.115Z,11.05
2023-02-14T09:44:29.335Z,9.32
2023-02-14T09:46:59.412Z,11.68
2023-02-14T09:49:39.639Z,12.27
2023-02-14T09:52:12.173Z,7.05
2023-02-14T09:54:42.587Z,8.02
2023-02-14T09:57:46.756Z,9.90
2023-02-14T10:00:35.252Z,9.98
2023-02-14T10:03:10.944Z,7.82
2023-02-14T10:05:56.395Z,6.03
2023-02-14T10:08:31.551Z,7.03
2023-02-14T10:11:07.513Z,7.45
2023-02-14T10:13:37.213Z,7.28
2023-02-14T10:16:21.150Z,10.07
2023-02-14T10:18:57.574Z,10.18
2023-02-14T10:21:31.425Z,8.02
2023-02-14T10:24:11.438Z,10.05
2023-02-14T10:26:41.191Z,10.35
2023-02-14T10:29:14.335Z,8.77
2023-02-14T10:31:55.679Z,11.63
2023-02-14T10:34:41.501Z,15.57
2023-02-14T10:37:26.443Z,14.25
2023-02-14T10:40:28.609Z,10.02
2023-02-14T10:43:21.839Z,9.63
2023-02-14T10:46:18.704Z,14.32
2023-02-14T10:49:19.045Z,18.00
2023-02-14T10:52:08.128Z,11.85
2023-02-14T10:54:44.652Z,5.72
2023-02-14T10:57:16.570Z,7.97
2023-02-14T10:59:52.334Z,5.30
2023-02-14T11:02:24.197Z,7.03
2023-02-14T11:04:51.389Z,8.55
2023-02-14T11:07:21.402Z,9.63
2023-02-14T11:09:48.564Z,4.50
2023-02-14T11:12:39.026Z,4.07
2023-02-14T11:15:14.187Z,5.75
2023-02-14T11:17:42.173Z,8.43
2023-02-14T11:20:26.444Z,7.47
2023-02-14T11:22:53.213Z,5.43
2023-02-14T11:25:27.032Z,7.78
2023-02-14T11:27:56.664Z,6.90
2023-02-14T11:30:31.336Z,2.58
2023-02-14T11:32:58.077Z,4.78
2023-02-14T11:35:33.672Z,3.33
2023-02-14T11:38:24.302Z,4.75
2023-02-14T11:40:55.959Z,5.97
2023-02-14T11:43:40.742Z,4.00
2023-02-14T11:46:52.826Z,9.38
2023-02-14T11:49:32.933Z,3.45
2023-02-14T11:52:15.293Z,9.70
2023-02-14T11:54:44.840Z,4.70
2023-02-14T11:57:35.147Z,5.00
2023-02-14T12:00:05.175Z,6.30
2023-02-14T12:02:45.842Z,8.05
2023-02-14T12:05:26.227Z,2.88
2023-02-14T12:07:55.947Z,5.20
2023-02-14T12:10:32.671Z,6.82
2023-02-14T12:13:07.963Z,4.85
2023-02-14T12:15:45.478Z,5.68
2023-02-14T12:18:45.453Z,5.18
2023-02-14T12:21:39.564Z,5.93
2023-02-14T12:24:31.313Z,6.85
2023-02-14T12:27:10.456Z,5.05
2023-02-14T12:29:41.655Z,6.97
2023-02-14T12:32:26.271Z,3.38
2023-02-14T12:35:16.585Z,3.50
2023-02-14T12:38:12.516Z,5.20
2023-02-14T12:40:39.155Z,6.93
2023-02-14T12:43:24.933Z,8.25
2023-02-14T12:46:19.488Z,3.42
2023-02-14T12:49:13.134Z,9.82
2023-02-14T12:52:21.206Z,10.10
2023-02-14T12:55:18.044Z,17.83
2023-02-14T12:57:54.389Z,13.65
2023-02-14T13:00:58.052Z,13.80
2023-02-14T13:03:24.857Z,14.07
2023-02-14T13:06:32.774Z,15.00
2023-02-14T13:09:25.411Z,13.60
2023-02-14T13:12:10.556Z,14.38
2023-02-14T13:14:45.067Z,16.05
2023-02-14T13:17:37.966Z,15.15
2023-02-14T13:20:30.968Z,17.52
2023-02-14T13:23:02.999Z,15.25
2023-02-14T13:25:42.763Z,16.17
2023-02-14T13:28:13.734Z,17.63
2023-02-14T13:30:42.955Z,17.83
2023-02-14T13:33:33.849Z,20.10
2023-02-14T13:36:10.731Z,15.75
2023-02-14T13:38:46.318Z,19.92
2023-02-14T13:41:15.048Z,16.02
2023-02-14T13:43:51.399Z,19.40
2023-02-14T13:46:21.050Z,17.85
2023-02-14T13:49:23.914Z,16.60
2023-02-14T13:51:53.547Z,18.38
2023-02-14T13:54:35.749Z,17.00
2023-02-14T13:57:24.515Z,16.20
2023-02-14T14:00:17.030Z,14.80
2023-02-14T14:02:52.424Z,15.55
2023-02-14T14:05:44.691Z,17.38
2023-02-14T14:08:20.343Z,18.25
2023-02-14T14:11:01.561Z,16.88
2023-02-14T14:13:40.390Z,17.13
2023-02-14T14:16:28.071Z,16.58
2023-02-14T14:19:01.464Z,23.25
2023-02-14T14:21:40.372Z,24.17
2023-02-14T14:24:30.356Z,15.50
2023-02-14T14:27:03.801Z,21.10
2023-02-14T14:29:51.508Z,17.02
2023-02-14T14:32:28.456Z,18.80
2023-02-14T14:34:59.642Z,17.88
2023-02-14T14:37:35.319Z,15.52
2023-02-14T14:40:18.252Z,20.70
2023-02-14T14:42:46.398Z,19.30
2023-02-14T14:45:25.068Z,16.13
2023-02-14T14:47:54.351Z,14.65
2023-02-14T14:50:27.615Z,16.33
2023-02-14T14:53:29.043Z,16.52
2023-02-14T14:55:56.919Z,17.88
2023-02-14T14:58:39.342Z,16.55
2023-02-14T15:01:10.864Z,16.85
2023-02-14T15:03:37.587Z,19.38
2023-02-14T15:06:05.949Z,16.52
2023-02-14T15:08:32.734Z,22.33
2023-02-14T15:11:10.100Z,16.95
2023-02-14T15:13:49.382Z,18.05
2023-02-14T15:16:44.721Z,16.52
2023-02-14T15:19:34.201Z,17.13
2023-02-14T15:22:02.970Z,16.67
2023-02-14T15:24:31.490Z,19.33
2023-02-14T15:26:58.967Z,18.58
2023-02-14T15:29:28.632Z,17.90
2023-02-14T15:31:57.736Z,19.27
2023-02-14T15:34:32.423Z,16.70
2023-02-14T15:37:06.011Z,17.77
2023-02-14T15:39:42.827Z,19.85
2023-02-14T15:42:32.604Z,20.58
2023-02-14T15:45:25.363Z,21.58
2023-02-14T15:47:55.591Z,22.83
2023-02-14T15:50:31.362Z,21.90
2023-02-14T15:53:26.832Z,21.17
2023-02-14T15:55:54.720Z,22.75
2023-02-14T15:58:28.846Z,17.27
2023-02-14T16:00:56.061Z,22.70
2023-02-14T16:05:51.962Z,19.83
2023-02-14T16:08:30.554Z,26.45
2023-02-14T16:11:08.803Z,21.27
2023-02-14T16:13:37.868Z,19.67
2023-02-14T16:16:10.177Z,24.48
2023-02-14T16:18:36.919Z,21.77
2023-02-14T16:21:27.495Z,16.63
2023-02-14T16:24:11.930Z,19.33
2023-02-14T16:26:40.856Z,20.35
2023-02-14T16:29:09.733Z,18.98
2023-02-14T16:32:15.586Z,22.83
2023-02-14T16:34:43.347Z,18.70
2023-02-14T16:37:21.813Z,18.98
2023-02-14T16:39:49.991Z,24.05
2023-02-14T16:42:17.792Z,27.75
2023-02-14T16:44:45.985Z,23.67
2023-02-14T16:47:15.220Z,16.77
2023-02-14T16:49:42.031Z,19.90
2023-02-14T16:52:17.330Z,22.42
2023-02-14T16:54:44.210Z,20.90
2023-02-14T16:57:35.850Z,21.98
2023-02-14T17:00:03.636Z,34.50
2023-02-14T17:02:30.437Z,42.20
2023-02-14T17:04:57.168Z,35.00
2023-02-14T17:07:23.902Z,27.15
2023-02-14T17:09:56.085Z,19.58
2023-02-14T17:12:28.331Z,21.88
2023-02-14T17:14:58.457Z,15.93
2023-02-14T17:17:25.865Z,15.10
2023-02-14T17:19:53.212Z,12.00
2023-02-14T17:22:20.430Z,10.43
2023-02-14T17:24:47.171Z,14.32
2023-02-14T17:27:14.001Z,12.10
2023-02-14T17:29:40.643Z,10.68
2023-02-14T17:32:11.629Z,13.75
2023-02-14T17:34:38.472Z,14.98
2023-02-14T17:37:05.228Z,10.70
2023-02-14T17:39:31.919Z,22.10
2023-02-14T17:41:59.304Z,7.80
2023-02-14T17:44:26.190Z,10.23
2023-02-14T17:46:54.588Z,19.13
2023-02-14T17:49:21.272Z,9.45
2023-02-14T17:51:47.935Z,6.43
2023-02-14T17:54:14.624Z,12.57
2023-02-14T17:56:41.283Z,16.73
2023-02-14T17:59:07.998Z,13.70
2023-02-14T18:01:36.240Z,11.00
2023-02-14T18:04:02.994Z,9.82
2023-02-14T18:06:29.810Z,13.82
2023-02-14T18:08:59.218Z,26.05
2023-02-14T18:11:28.139Z,11.18
2023-02-14T18:13:56.219Z,8.50
2023-02-14T18:16:24.772Z,17.52
2023-02-14T18:18:52.198Z,26.42
2023-02-14T18:21:20.861Z,23.88
2023-02-14T18:23:48.140Z,30.58
2023-02-14T18:26:17.058Z,15.95
2023-02-14T18:28:43.781Z,6.57
2023-02-14T18:31:18.449Z,10.32
2023-02-14T18:33:46.867Z,10.38
2023-02-14T18:36:15.805Z,6.82
2023-02-14T18:38:44.996Z,8.15
2023-02-14T18:41:14.470Z,8.82
2023-02-14T18:43:42.225Z,7.55
2023-02-14T18:46:12.250Z,8.93
2023-02-14T18:48:39.272Z,8.20
2023-02-14T18:51:11.155Z,7.50
2023-02-14T18:53:39.380Z,8.38
2023-02-14T18:56:07.519Z,12.80
2023-02-14T18:58:34.649Z,10.95
2023-02-14T19:01:09.399Z,10.52
2023-02-14T19:03:36.447Z,10.55
2023-02-14T19:06:03.406Z,11.63
2023-02-14T19:08:35.415Z,9.35
2023-02-14T19:11:02.541Z,10.48
2023-02-14T19:13:29.855Z,11.50
2023-02-14T19:15:56.689Z,7.95
2023-02-14T19:18:25.631Z,7.95
2023-02-14T19:20:52.987Z,8.90
2023-02-14T19:25:46.381Z,11.60
2023-02-14T19:28:13.452Z,14.50
2023-02-14T19:30:40.348Z,7.45
2023-02-14T19:33:07.076Z,10.93
2023-02-14T19:35:33.774Z,8.50
2023-02-14T19:38:03.393Z,12.20
2023-02-14T19:40:30.877Z,7.93
2023-02-14T19:45:24.437Z,13.05
2023-02-14T19:47:51.070Z,6.95
2023-02-14T19:50:19.435Z,9.35
2023-02-14T19:52:47.024Z,11.57
2023-02-14T19:55:21.438Z,12.45
2023-02-14T19:57:48.286Z,13.93
2023-02-14T20:00:16.200Z,23.20
2023-02-14T20:02:47.925Z,17.63
2023-02-14T20:05:17.537Z,12.88
2023-02-14T20:07:44.420Z,10.30
2023-02-14T20:10:12.056Z,11.10
2023-02-14T20:12:38.937Z,10.35
2023-02-14T20:15:06.139Z,8.25
2023-02-14T20:17:33.247Z,9.27
2023-02-14T20:20:00.763Z,10.05
2023-02-14T20:22:27.893Z,5.78
2023-02-14T20:24:54.560Z,6.60
2023-02-14T20:27:21.227Z,11.50
2023-02-14T20:29:47.882Z,5.93
2023-02-14T20:32:15.864Z,6.32
2023-02-14T20:34:42.935Z,8.52
2023-02-14T20:37:10.988Z,10.75
2023-02-14T20:39:38.144Z,6.40
2023-02-14T20:42:05.667Z,8.38
2023-02-14T20:44:32.322Z,8.10
2023-02-14T20:46:59.031Z,6.28
2023-02-14T20:49:27.375Z,9.30
2023-02-14T20:51:54.515Z,11.55
2023-02-14T20:54:24.037Z,10.93
2023-02-14T20:56:51.225Z,18.48
2023-02-14T20:59:19.279Z,11.98
2023-02-14T21:01:46.090Z,8.57
2023-02-14T21:04:13.986Z,8.35
2023-02-14T21:06:40.763Z,11.20
2023-02-14T21:09:07.546Z,7.07
2023-02-14T21:11:34.276Z,7.05
2023-02-14T21:14:02.102Z,15.65
2023-02-14T21:16:30.095Z,26.55
2023-02-14T21:18:59.464Z,40.38
2023-02-14T21:21:36.613Z,47.72
2023-02-14T21:24:06.923Z,25.87
2023-02-14T21:26:34.047Z,18.30
2023-02-14T21:29:01.517Z,26.90
2023-02-14T21:31:28.288Z,19.00
2023-02-14T21:33:57.341Z,13.80
2023-02-14T21:36:25.726Z,12.77
2023-02-14T21:38:55.398Z,10.25
2023-02-14T21:41:23.683Z,11.68
2023-02-14T21:43:52.967Z,10.75
2023-02-14T21:46:27.389Z,11.35
2023-02-14T21:49:14.022Z,9.95
2023-02-14T21:51:41.425Z,10.95
2023-02-14T21:56:36.773Z,9.60
2023-02-14T21:59:03.783Z,13.07
2023-02-14T22:01:33.386Z,11.40
2023-02-14T22:04:00.950Z,14.65
2023-02-14T22:06:28.394Z,18.45
2023-02-14T22:08:57.009Z,20.88
2023-02-14T22:11:24.859Z,30.38
2023-02-14T22:13:52.677Z,27.02
2023-02-14T22:16:21.208Z,24.48
2023-02-14T22:18:48.678Z,26.25
2023-02-14T22:21:18.588Z,26.70
2023-02-14T22:23:45.504Z,22.23
2023-02-14T22:26:15.143Z,23.33
2023-02-14T22:28:43.797Z,30.48
2023-02-14T22:31:11.437Z,28.77
2023-02-14T22:33:38.183Z,25.60
2023-02-14T22:39:07.224Z,23.90
2023-02-14T22:41:37.680Z,32.55
2023-02-14T22:44:05.298Z,29.15
2023-02-14T22:46:32.688Z,32.03
2023-02-14T22:48:59.390Z,32.40
2023-02-14T22:51:37.685Z,22.02
2023-02-14T22:54:07.226Z,24.98
2023-02-14T22:56:40.358Z,33.80
2023-02-14T22:59:13.407Z,25.58
2023-02-14T23:01:40.254Z,31.55
2023-02-14T23:04:07.227Z,21.77
2023-02-14T23:06:36.260Z,26.70
2023-02-14T23:09:05.039Z,26.35
2023-02-14T23:11:33.800Z,22.02
2023-02-14T23:14:19.368Z,21.83
2023-02-14T23:17:05.325Z,14.00
2023-02-14T23:19:52.842Z,11.55
2023-02-14T23:22:22.270Z,10.00
2023-02-14T23:24:50.913Z,7.05
2023-02-14T23:27:20.873Z,7.25
2023-02-14T23:29:47.819Z,8.30
2023-02-14T23:32:15.109Z,9.07
2023-02-14T23:34:43.565Z,8.77
2023-02-14T23:37:11.312Z,9.10
2023-02-14T23:39:38.137Z,14.43
2023-02-14T23:42:06.132Z,16.77
2023-02-14T23:44:33.387Z,18.95
2023-02-14T23:47:04.102Z,17.45
2023-02-14T23:49:32.697Z,26.35
2023-02-14T23:51:59.997Z,25.27
2023-02-14T23:56:53.937Z,26.65
2023-02-14T23:59:21.727Z,20.85
